Time;durP1;ratioP1;P1;durP2;ratioP2;P2;SDS_P1;SDS_P2;PMS_P1;PMS_P2;Temp;Humidity;BMP_temperature;BMP_pressure;BME280_temperature;BME280_humidity;BME280_pressure;Samples;Min_cycle;Max_cycle;Signal;HPM_P1;HPM_P2
2023/06/14 00:00:48;;;;;;;;;;;15.20;82.50;;;;;;5076172;28;20435;-83
2023/06/14 00:03:17;;;;;;;;;;;15.20;82.70;;;;;;5075844;28;19909;-83
2023/06/14 00:05:43;;;;;;;;;;;15.20;82.80;;;;;;5074727;28;19948;-83
2023/06/14 00:08:09;;;;;;;;;;;15.10;83.10;;;;;;5057322;28;20386;-84
2023/06/14 00:10:35;;;;;;;;;;;15.00;83.30;;;;;;5058271;28;19908;-84
2023/06/14 00:13:02;;;;;;;;;;;15.00;83.80;;;;;;5074934;28;20330;-84
2023/06/14 00:15:31;;;;;;;;;;;14.90;84.10;;;;;;5074565;28;19909;-84
2023/06/14 00:18:00;;;;;;;;;;;14.90;84.30;;;;;;5057253;28;19947;-84
2023/06/14 00:20:26;;;;;;;;;;;14.90;84.50;;;;;;5073082;28;20363;-84
2023/06/14 00:22:52;;;;;;;;;;;14.90;84.80;;;;;;5074210;28;19969;-84
2023/06/14 00:25:39;;;;;;;;;;;14.90;85.10;;;;;;5074402;28;19908;-84
2023/06/14 00:28:05;;;;;;;;;;;14.90;85.70;;;;;;5057605;28;19909;-84
2023/06/14 00:30:36;;;;;;;;;;;14.80;85.70;;;;;;5073555;28;19916;-84
2023/06/14 00:33:01;;;;;;;;;;;14.70;86.10;;;;;;5073981;28;19959;-84
2023/06/14 00:35:27;;;;;;;;;;;14.70;86.30;;;;;;5073636;28;19947;-84
2023/06/14 00:37:54;;;;;;;;;;;14.70;86.70;;;;;;5073652;28;19965;-84
2023/06/14 00:40:21;;;;;;;;;;;14.70;87.00;;;;;;5073470;28;19916;-84
2023/06/14 00:42:46;;;;;;;;;;;14.60;87.40;;;;;;5056684;28;19931;-84
2023/06/14 00:45:12;;;;;;;;;;;14.50;87.70;;;;;;5073941;28;19913;-84
2023/06/14 00:47:38;;;;;;;;;;;14.50;88.20;;;;;;5057107;28;20003;-84
2023/06/14 00:50:06;;;;;;;;;;;14.50;88.10;;;;;;5073455;28;20359;-83
2023/06/14 00:52:32;;;;;;;;;;;14.50;88.20;;;;;;5073447;28;19974;-84
2023/06/14 00:55:16;;;;;;;;;;;14.40;88.40;;;;;;5057161;28;20367;-84
2023/06/14 00:57:42;;;;;;;;;;;14.50;88.50;;;;;;5073604;28;20609;-83
2023/06/14 01:00:09;;;;;;;;;;;14.50;88.60;;;;;;5057046;28;19908;-84
2023/06/14 01:02:38;;;;;;;;;;;14.50;88.70;;;;;;5056502;28;19909;-84
2023/06/14 01:05:06;;;;;;;;;;;14.50;88.80;;;;;;5073302;28;19931;-84
2023/06/14 01:07:51;;;;;;;;;;;14.40;89.10;;;;;;5073015;28;19966;-84
2023/06/14 01:10:26;;;;;;;;;;;14.40;89.50;;;;;;5073257;28;19912;-84
2023/06/14 01:12:59;;;;;;;;;;;14.40;89.80;;;;;;5056437;28;19919;-84
2023/06/14 01:15:26;;;;;;;;;;;14.40;90.00;;;;;;5072820;28;19909;-85
2023/06/14 01:18:03;;;;;;;;;;;14.30;90.00;;;;;;5056901;28;19911;-84
2023/06/14 01:20:30;;;;;;;;;;;14.30;90.10;;;;;;5074217;28;19915;-84
2023/06/14 01:22:56;;;;;;;;;;;14.30;90.40;;;;;;5056310;28;19912;-84
2023/06/14 01:25:23;;;;;;;;;;;14.20;90.60;;;;;;5066048;28;20310;-84
2023/06/14 01:27:53;;;;;;;;;;;14.20;90.60;;;;;;5056487;28;19910;-84
2023/06/14 01:33:48;;;;;;;;;;;14.20;90.70;;;;;;5067950;28;19919;-84
2023/06/14 01:36:14;;;;;;;;;;;14.30;90.90;;;;;;5056274;28;19909;-84
2023/06/14 01:38:40;;;;;;;;;;;14.30;90.90;;;;;;5073190;28;20407;-84
2023/06/14 01:41:06;;;;;;;;;;;14.30;91.10;;;;;;5073324;28;20005;-84
2023/06/14 01:43:32;;;;;;;;;;;14.20;91.30;;;;;;5074255;28;20001;-84
2023/06/14 01:45:59;;;;;;;;;;;14.10;91.40;;;;;;5076591;28;19995;-84
2023/06/14 01:48:27;;;;;;;;;;;14.20;91.50;;;;;;5076833;28;19916;-84
2023/06/14 01:50:52;;;;;;;;;;;14.20;91.50;;;;;;5062681;28;19924;-84
2023/06/14 01:53:20;;;;;;;;;;;14.30;91.70;;;;;;5078660;28;19918;-84
2023/06/14 01:56:01;;;;;;;;;;;14.20;91.70;;;;;;5060120;28;19919;-83
2023/06/14 01:58:31;;;;;;;;;;;14.20;91.90;;;;;;5075215;28;19913;-84
2023/06/14 02:00:58;;;;;;;;;;;14.20;91.90;;;;;;5058004;28;19908;-84
2023/06/14 02:03:24;;;;;;;;;;;14.20;92.20;;;;;;5057225;28;19951;-84
2023/06/14 02:05:51;;;;;;;;;;;14.10;92.40;;;;;;5073801;28;19957;-84
2023/06/14 02:08:17;;;;;;;;;;;14.00;92.50;;;;;;5073672;28;19909;-84
2023/06/14 02:10:43;;;;;;;;;;;14.00;92.90;;;;;;5056486;28;19916;-84
2023/06/14 02:16:38;;;;;;;;;;;14.00;93.40;;;;;;5073309;28;19915;-84
2023/06/14 02:19:04;;;;;;;;;;;14.00;93.60;;;;;;5072514;28;19908;-84
2023/06/14 02:21:30;;;;;;;;;;;13.90;93.90;;;;;;5073114;28;20347;-84
2023/06/14 02:23:56;;;;;;;;;;;13.90;94.30;;;;;;5072815;28;20644;-84
2023/06/14 02:26:22;;;;;;;;;;;13.90;94.50;;;;;;5056335;28;19908;-84
2023/06/14 02:28:48;;;;;;;;;;;13.80;94.70;;;;;;5089907;28;19916;-84
2023/06/14 02:31:13;;;;;;;;;;;13.80;95.00;;;;;;5072596;28;20287;-84
2023/06/14 02:33:39;;;;;;;;;;;13.80;95.20;;;;;;5055394;28;19912;-84
2023/06/14 02:36:05;;;;;;;;;;;13.70;95.60;;;;;;5055303;28;19908;-84
2023/06/14 02:38:34;;;;;;;;;;;13.70;95.90;;;;;;5071558;28;19915;-84
2023/06/14 02:41:01;;;;;;;;;;;13.60;96.10;;;;;;5071761;28;19927;-84
2023/06/14 02:43:28;;;;;;;;;;;13.70;96.30;;;;;;5073795;28;19993;-84
2023/06/14 02:45:54;;;;;;;;;;;13.60;96.50;;;;;;5059498;28;19904;-84
2023/06/14 02:48:20;;;;;;;;;;;13.60;97.00;;;;;;5058532;28;19912;-83
2023/06/14 02:50:46;;;;;;;;;;;13.60;97.00;;;;;;5075200;28;19958;-84
2023/06/14 02:53:12;;;;;;;;;;;13.50;97.50;;;;;;5082542;28;19987;-83
2023/06/14 02:55:39;;;;;;;;;;;13.40;98.00;;;;;;5075944;28;20292;-84
2023/06/14 02:58:05;;;;;;;;;;;13.30;98.50;;;;;;5076105;28;19908;-84
2023/06/14 03:00:31;;;;;;;;;;;13.20;98.90;;;;;;5076323;28;19924;-84
2023/06/14 03:02:57;;;;;;;;;;;13.20;99.30;;;;;;5059013;28;20469;-84
2023/06/14 03:05:23;;;;;;;;;;;13.20;99.50;;;;;;5059069;28;20326;-84
2023/06/14 03:07:50;;;;;;;;;;;13.20;99.70;;;;;;5059198;28;19999;-84
2023/06/14 03:10:16;;;;;;;;;;;13.20;99.90;;;;;;5075704;28;19909;-84
2023/06/14 03:12:44;;;;;;;;;;;13.20;99.90;;;;;;5075404;28;20360;-84
2023/06/14 03:15:12;;;;;;;;;;;13.30;99.90;;;;;;5058874;28;20678;-84
2023/06/14 03:17:45;;;;;;;;;;;13.30;99.90;;;;;;5075726;28;19915;-84
2023/06/14 03:20:11;;;;;;;;;;;13.40;99.90;;;;;;5069504;28;19913;-82
2023/06/14 03:22:37;;;;;;;;;;;13.40;99.90;;;;;;5090959;28;20377;-82
2023/06/14 03:25:04;;;;;;;;;;;13.50;99.90;;;;;;5058321;28;19915;-82
2023/06/14 03:27:32;;;;;;;;;;;13.50;99.90;;;;;;5073990;28;19931;-82
2023/06/14 03:29:59;;;;;;;;;;;13.50;99.90;;;;;;5074290;28;19916;-82
2023/06/14 03:32:25;;;;;;;;;;;13.40;99.90;;;;;;5074258;28;19910;-82
2023/06/14 03:34:52;;;;;;;;;;;13.40;99.90;;;;;;5074333;28;20266;-82
2023/06/14 03:37:21;;;;;;;;;;;13.40;99.90;;;;;;5074101;28;19966;-82
2023/06/14 03:39:48;;;;;;;;;;;13.40;99.90;;;;;;5057585;28;19912;-82
2023/06/14 03:42:18;;;;;;;;;;;13.30;99.90;;;;;;5074291;28;19954;-82
2023/06/14 03:44:45;;;;;;;;;;;13.40;99.90;;;;;;5074436;28;19954;-82
2023/06/14 03:47:11;;;;;;;;;;;13.40;99.90;;;;;;5057326;28;19908;-82
2023/06/14 03:49:37;;;;;;;;;;;13.40;99.90;;;;;;5073970;28;20386;-82
2023/06/14 03:52:03;;;;;;;;;;;13.40;99.90;;;;;;5057687;28;19909;-82
2023/06/14 03:54:32;;;;;;;;;;;13.40;99.90;;;;;;5072743;28;19912;-81
2023/06/14 03:56:58;;;;;;;;;;;13.40;99.90;;;;;;5074772;28;19909;-82
2023/06/14 03:59:25;;;;;;;;;;;13.40;99.90;;;;;;5074654;28;19908;-82
2023/06/14 04:01:53;;;;;;;;;;;13.40;99.90;;;;;;5073980;28;19964;-82
2023/06/14 04:04:19;;;;;;;;;;;13.40;99.90;;;;;;5073968;28;19958;-82
2023/06/14 04:06:48;;;;;;;;;;;13.40;99.90;;;;;;5073938;28;19908;-82
2023/06/14 04:09:13;;;;;;;;;;;13.40;99.90;;;;;;5074147;28;19958;-82
2023/06/14 04:11:40;;;;;;;;;;;13.40;99.90;;;;;;5057285;28;19970;-82
2023/06/14 04:14:12;;;;;;;;;;;13.40;99.90;;;;;;5073808;28;19916;-82
2023/06/14 04:16:38;;;;;;;;;;;13.40;99.90;;;;;;5057551;28;19943;-82
2023/06/14 04:19:03;;;;;;;;;;;13.40;99.90;;;;;;5074127;28;19967;-82
2023/06/14 04:21:29;;;;;;;;;;;13.40;99.90;;;;;;5057228;28;19916;-82
2023/06/14 04:23:57;;;;;;;;;;;13.50;99.90;;;;;;5073895;28;19959;-82
2023/06/14 04:26:29;;;;;;;;;;;13.50;99.90;;;;;;5057774;28;19950;-82
2023/06/14 04:28:56;;;;;;;;;;;13.40;99.90;;;;;;5074133;28;19908;-82
2023/06/14 04:31:29;;;;;;;;;;;13.40;99.90;;;;;;5056853;28;19943;-82
2023/06/14 04:33:59;;;;;;;;;;;13.40;99.90;;;;;;5057036;28;19912;-82
2023/06/14 04:36:49;;;;;;;;;;;13.40;99.90;;;;;;5073494;28;19961;-82
2023/06/14 04:39:17;;;;;;;;;;;13.50;99.90;;;;;;5073472;28;20356;-82
2023/06/14 04:41:44;;;;;;;;;;;13.50;99.90;;;;;;5073470;28;19912;-82
2023/06/14 04:44:10;;;;;;;;;;;13.50;99.90;;;;;;5056833;28;19918;-82
2023/06/14 04:46:47;;;;;;;;;;;13.60;99.90;;;;;;5073919;28;19908;-82
2023/06/14 04:49:19;;;;;;;;;;;13.60;99.90;;;;;;5057539;28;19916;-82
2023/06/14 04:51:46;;;;;;;;;;;13.60;99.90;;;;;;5074449;28;19918;-82
2023/06/14 04:54:14;;;;;;;;;;;13.60;99.90;;;;;;5073320;28;19916;-82
2023/06/14 05:00:11;;;;;;;;;;;13.70;99.90;;;;;;5069633;28;19924;-82
2023/06/14 05:02:37;;;;;;;;;;;13.70;99.90;;;;;;5073022;28;19909;-82
2023/06/14 05:05:07;;;;;;;;;;;13.80;99.90;;;;;;5056764;28;20460;-82
2023/06/14 05:07:36;;;;;;;;;;;13.80;99.90;;;;;;5073910;28;19919;-82
2023/06/14 05:10:02;;;;;;;;;;;13.90;99.90;;;;;;5058521;28;20363;-82
2023/06/14 05:12:29;;;;;;;;;;;13.90;99.90;;;;;;5081331;28;19897;-82
2023/06/14 05:14:54;;;;;;;;;;;14.00;99.90;;;;;;5076172;28;19913;-82
2023/06/14 05:17:36;;;;;;;;;;;14.00;99.90;;;;;;5075259;28;19912;-82
2023/06/14 05:20:02;;;;;;;;;;;14.10;99.90;;;;;;5073101;28;20002;-82
2023/06/14 05:22:27;;;;;;;;;;;14.10;99.90;;;;;;5073365;28;19946;-82
2023/06/14 05:24:53;;;;;;;;;;;14.10;99.90;;;;;;5056776;28;19912;-82
2023/06/14 05:27:19;;;;;;;;;;;14.20;99.90;;;;;;5093298;28;19908;-81
2023/06/14 05:29:44;;;;;;;;;;;14.20;99.90;;;;;;5075957;28;19955;-82
2023/06/14 05:32:10;;;;;;;;;;;14.30;99.90;;;;;;5073232;28;19912;-81
2023/06/14 05:34:35;;;;;;;;;;;14.30;99.90;;;;;;5073325;28;19912;-82
2023/06/14 05:37:01;;;;;;;;;;;14.30;99.90;;;;;;5072998;28;20464;-82
2023/06/14 05:39:26;;;;;;;;;;;14.40;99.90;;;;;;5073100;28;19958;-82
2023/06/14 05:41:52;;;;;;;;;;;14.40;99.90;;;;;;5055502;28;19916;-82
2023/06/14 05:44:18;;;;;;;;;;;14.50;99.90;;;;;;5072524;28;19951;-82
2023/06/14 05:46:43;;;;;;;;;;;14.60;99.90;;;;;;5055244;28;20310;-82
2023/06/14 05:49:09;;;;;;;;;;;14.60;99.90;;;;;;5072473;28;19908;-82
2023/06/14 05:51:34;;;;;;;;;;;14.70;99.90;;;;;;5055803;28;19908;-82
2023/06/14 05:54:00;;;;;;;;;;;14.80;99.90;;;;;;5072184;28;19939;-82
2023/06/14 05:56:26;;;;;;;;;;;14.80;99.90;;;;;;5072143;28;20343;-82
2023/06/14 05:58:52;;;;;;;;;;;14.90;99.90;;;;;;5071939;28;19913;-83
2023/06/14 06:01:26;;;;;;;;;;;14.90;99.90;;;;;;5072344;28;19954;-82
2023/06/14 06:03:52;;;;;;;;;;;14.90;99.90;;;;;;5071882;28;19912;-82
2023/06/14 06:06:18;;;;;;;;;;;15.00;99.90;;;;;;5071678;28;20609;-82
2023/06/14 06:08:43;;;;;;;;;;;15.10;99.90;;;;;;5072102;28;19908;-82
2023/06/14 06:11:09;;;;;;;;;;;15.20;99.90;;;;;;5054963;28;19962;-83
2023/06/14 06:13:35;;;;;;;;;;;15.30;99.90;;;;;;5071548;28;19969;-82
2023/06/14 06:16:01;;;;;;;;;;;15.30;99.90;;;;;;5071702;28;19955;-83
2023/06/14 06:18:27;;;;;;;;;;;15.40;99.90;;;;;;5071182;28;19908;-82
2023/06/14 06:20:52;;;;;;;;;;;15.50;99.90;;;;;;5072176;28;19915;-82
2023/06/14 06:23:18;;;;;;;;;;;15.50;99.90;;;;;;5072939;28;20524;-83
2023/06/14 06:25:59;;;;;;;;;;;15.60;99.90;;;;;;5071659;28;19912;-82
2023/06/14 06:28:24;;;;;;;;;;;15.70;99.90;;;;;;5072172;28;19908;-82
2023/06/14 06:30:50;;;;;;;;;;;15.70;99.90;;;;;;5071881;28;19919;-81
2023/06/14 06:33:16;;;;;;;;;;;15.70;99.90;;;;;;5070985;28;19912;-81
2023/06/14 06:35:42;;;;;;;;;;;15.70;99.90;;;;;;5071666;28;19955;-82
2023/06/14 06:38:09;;;;;;;;;;;15.70;99.90;;;;;;5055074;28;20263;-82
2023/06/14 06:40:35;;;;;;;;;;;15.70;99.90;;;;;;5055181;28;19909;-82
2023/06/14 06:43:13;;;;;;;;;;;15.80;99.90;;;;;;5073242;28;20452;-82
2023/06/14 06:45:44;;;;;;;;;;;15.80;99.90;;;;;;5069999;28;19908;-82
2023/06/14 06:48:10;;;;;;;;;;;15.80;99.90;;;;;;5071271;28;19912;-82
2023/06/14 06:50:36;;;;;;;;;;;15.80;99.90;;;;;;5071565;28;19958;-82
2023/06/14 06:53:01;;;;;;;;;;;15.80;99.90;;;;;;5071524;28;19973;-82
2023/06/14 06:55:27;;;;;;;;;;;15.90;99.90;;;;;;5071468;28;19912;-83
2023/06/14 06:57:53;;;;;;;;;;;16.00;99.90;;;;;;5070912;28;19970;-82
2023/06/14 07:00:19;;;;;;;;;;;16.00;99.90;;;;;;5071065;28;19912;-82
2023/06/14 07:02:45;;;;;;;;;;;16.00;99.90;;;;;;5036720;28;20281;-83
2023/06/14 07:05:17;;;;;;;;;;;16.20;99.90;;;;;;5071586;28;19979;-82
2023/06/14 07:07:42;;;;;;;;;;;16.30;99.90;;;;;;5054853;28;20260;-82
2023/06/14 07:10:08;;;;;;;;;;;16.70;99.90;;;;;;5071730;28;19915;-82
2023/06/14 07:12:39;;;;;;;;;;;17.40;99.90;;;;;;5071196;28;20381;-83
2023/06/14 07:15:06;;;;;;;;;;;18.50;99.60;;;;;;5072159;28;20042;-82
2023/06/14 07:17:32;;;;;;;;;;;19.90;97.70;;;;;;5054400;28;19912;-83
2023/06/14 07:19:58;;;;;;;;;;;21.00;95.30;;;;;;5069557;28;19931;-83
2023/06/14 07:22:23;;;;;;;;;;;21.90;93.60;;;;;;5076596;28;19915;-83
2023/06/14 07:24:49;;;;;;;;;;;22.20;92.00;;;;;;5072412;28;19908;-80
2023/06/14 07:27:15;;;;;;;;;;;22.50;90.90;;;;;;5071226;28;19999;-82
2023/06/14 07:29:40;;;;;;;;;;;23.10;89.60;;;;;;5072817;28;20002;-82
2023/06/14 07:32:06;;;;;;;;;;;23.20;88.50;;;;;;5074750;28;19965;-82
2023/06/14 07:34:32;;;;;;;;;;;23.30;86.60;;;;;;5074927;28;19956;-83
2023/06/14 07:36:57;;;;;;;;;;;23.00;86.50;;;;;;5075293;28;19954;-82
2023/06/14 07:39:23;;;;;;;;;;;22.80;86.60;;;;;;5074979;28;20333;-83
2023/06/14 07:41:48;;;;;;;;;;;22.70;86.20;;;;;;5058354;28;19908;-83
2023/06/14 07:44:15;;;;;;;;;;;21.60;89.40;;;;;;5074640;28;19954;-83
2023/06/14 07:46:41;;;;;;;;;;;20.50;91.90;;;;;;5074597;28;20386;-82
2023/06/14 07:49:07;;;;;;;;;;;19.60;93.40;;;;;;5058453;28;19913;-79
2023/06/14 07:51:32;;;;;;;;;;;19.10;94.40;;;;;;5074496;28;19908;-82
2023/06/14 07:54:30;;;;;;;;;;;18.70;95.10;;;;;;5075237;28;20367;-82
2023/06/14 07:56:56;;;;;;;;;;;18.40;95.30;;;;;;5074974;28;19919;-82
2023/06/14 07:59:21;;;;;;;;;;;18.90;95.10;;;;;;5057961;28;19919;-82
2023/06/14 08:01:47;;;;;;;;;;;20.70;93.00;;;;;;5074224;28;19909;-82
2023/06/14 08:04:16;;;;;;;;;;;22.60;90.70;;;;;;5057834;28;20355;-80
2023/06/14 08:06:45;;;;;;;;;;;23.80;86.00;;;;;;5074491;28;20383;-81
2023/06/14 08:09:12;;;;;;;;;;;24.30;81.80;;;;;;5058477;28;20382;-81
2023/06/14 08:11:38;;;;;;;;;;;25.30;81.10;;;;;;5074426;28;19912;-81
2023/06/14 08:14:03;;;;;;;;;;;25.50;78.80;;;;;;5058604;28;19935;-81
2023/06/14 08:16:29;;;;;;;;;;;25.10;76.50;;;;;;5074142;28;19974;-82
2023/06/14 08:18:55;;;;;;;;;;;25.20;75.20;;;;;;5091185;28;19909;-81
2023/06/14 08:21:21;;;;;;;;;;;25.10;75.10;;;;;;5057989;28;19950;-81
2023/06/14 08:23:47;;;;;;;;;;;25.00;74.20;;;;;;5057565;28;19908;-81
2023/06/14 08:26:13;;;;;;;;;;;25.00;75.20;;;;;;5074499;28;20268;-81
2023/06/14 08:28:38;;;;;;;;;;;25.40;74.50;;;;;;5057903;28;19904;-81
2023/06/14 08:31:04;;;;;;;;;;;26.00;72.30;;;;;;5073588;28;20344;-80
2023/06/14 08:33:29;;;;;;;;;;;26.20;71.10;;;;;;5073904;28;20437;-83
2023/06/14 08:35:55;;;;;;;;;;;26.60;71.80;;;;;;5057634;28;20348;-82
2023/06/14 08:38:20;;;;;;;;;;;26.80;70.80;;;;;;5057998;28;19908;-82
2023/06/14 08:40:49;;;;;;;;;;;27.00;69.70;;;;;;5073209;28;19958;-82
2023/06/14 08:43:15;;;;;;;;;;;27.30;65.70;;;;;;5073844;28;19919;-82
2023/06/14 08:45:40;;;;;;;;;;;26.80;65.70;;;;;;5074641;28;19912;-82
2023/06/14 08:48:07;;;;;;;;;;;27.00;66.70;;;;;;5080915;28;19930;-81
2023/06/14 08:50:34;;;;;;;;;;;27.50;66.20;;;;;;5073471;28;19912;-83
2023/06/14 08:53:02;;;;;;;;;;;27.50;65.30;;;;;;5072593;28;19995;-82
2023/06/14 08:55:29;;;;;;;;;;;26.90;66.50;;;;;;5069063;28;19908;-83
2023/06/14 08:57:57;;;;;;;;;;;26.80;66.30;;;;;;5073563;28;20513;-81
2023/06/14 09:00:24;;;;;;;;;;;26.60;66.40;;;;;;5074900;28;19915;-81
2023/06/14 09:02:50;;;;;;;;;;;26.40;65.50;;;;;;5073544;28;19912;-81
2023/06/14 09:05:18;;;;;;;;;;;26.40;67.00;;;;;;5039361;28;20307;-81
2023/06/14 09:07:44;;;;;;;;;;;26.40;64.00;;;;;;5056331;28;19962;-81
2023/06/14 09:10:13;;;;;;;;;;;27.00;63.80;;;;;;5070134;28;19948;-82
2023/06/14 09:12:39;;;;;;;;;;;27.20;62.40;;;;;;5057361;28;20326;-82
2023/06/14 09:15:06;;;;;;;;;;;26.80;62.30;;;;;;5068447;28;19947;-82
2023/06/14 09:17:38;;;;;;;;;;;26.80;62.70;;;;;;5073334;28;20360;-82
2023/06/14 09:20:10;;;;;;;;;;;26.80;62.30;;;;;;5072773;28;19916;-82
2023/06/14 09:22:37;;;;;;;;;;;27.10;59.80;;;;;;5072784;28;20372;-82
2023/06/14 09:25:03;;;;;;;;;;;27.20;60.30;;;;;;5072293;28;19920;-82
2023/06/14 09:27:29;;;;;;;;;;;27.40;57.50;;;;;;5055363;28;19916;-82
2023/06/14 09:29:55;;;;;;;;;;;27.60;59.10;;;;;;5072438;28;19915;-82
2023/06/14 09:32:23;;;;;;;;;;;27.50;59.00;;;;;;5055569;28;20340;-82
2023/06/14 09:34:49;;;;;;;;;;;27.70;58.30;;;;;;5073245;28;20372;-82
2023/06/14 09:37:26;;;;;;;;;;;28.10;57.80;;;;;;5056030;28;19916;-82
2023/06/14 09:39:51;;;;;;;;;;;28.00;58.00;;;;;;5072391;28;20283;-82
2023/06/14 09:42:19;;;;;;;;;;;28.40;57.20;;;;;;5072316;28;19915;-82
2023/06/14 09:44:48;;;;;;;;;;;28.50;57.60;;;;;;5072188;28;19914;-82
2023/06/14 09:47:17;;;;;;;;;;;28.30;58.20;;;;;;5072242;28;19966;-82
2023/06/14 09:49:43;;;;;;;;;;;28.10;59.50;;;;;;5072250;28;20291;-82
2023/06/14 09:52:14;;;;;;;;;;;28.90;58.60;;;;;;5073275;28;19908;-82
2023/06/14 09:54:42;;;;;;;;;;;29.50;57.40;;;;;;5071918;28;19912;-82
2023/06/14 09:57:11;;;;;;;;;;;29.30;57.30;;;;;;5089375;28;19908;-82
2023/06/14 09:59:39;;;;;;;;;;;28.80;57.30;;;;;;5080987;28;20022;-83
2023/06/14 10:02:08;;;;;;;;;;;28.10;54.60;;;;;;5072262;28;19961;-82
2023/06/14 10:04:34;;;;;;;;;;;26.90;57.20;;;;;;5056242;28;19908;-82
2023/06/14 10:07:06;;;;;;;;;;;26.70;58.20;;;;;;5075160;28;19909;-88
2023/06/14 10:09:33;;;;;;;;;;;27.00;58.60;;;;;;5074498;28;19999;-88
2023/06/14 10:12:21;;;;;;;;;;;27.00;57.90;;;;;;5073950;28;20423;-87
2023/06/14 10:14:51;;;;;;;;;;;25.80;58.60;;;;;;5057109;28;20368;-87
2023/06/14 10:20:55;;;;;;;;;;;25.50;60.40;;;;;;5071761;28;19962;-88
2023/06/14 10:23:22;;;;;;;;;;;26.50;59.50;;;;;;5073482;28;19909;-87
2023/06/14 10:25:55;;;;;;;;;;;27.00;58.50;;;;;;5073754;28;19908;-88
2023/06/14 10:28:24;;;;;;;;;;;26.70;58.00;;;;;;5056931;28;19908;-87
2023/06/14 10:31:06;;;;;;;;;;;26.10;59.50;;;;;;5073180;28;19912;-87
2023/06/14 10:33:32;;;;;;;;;;;25.20;61.00;;;;;;5056408;28;19919;-87
2023/06/14 10:36:16;;;;;;;;;;;24.00;63.00;;;;;;5057515;28;19904;-87
2023/06/14 10:38:42;;;;;;;;;;;23.50;64.10;;;;;;5054374;28;19962;-87
2023/06/14 10:41:07;;;;;;;;;;;23.60;66.30;;;;;;5073280;28;20355;-87
2023/06/14 10:43:33;;;;;;;;;;;23.80;64.70;;;;;;5073001;28;19909;-87
2023/06/14 10:46:15;;;;;;;;;;;23.60;63.50;;;;;;5073805;28;19915;-87
2023/06/14 10:48:41;;;;;;;;;;;23.40;63.20;;;;;;5056577;28;20469;-87
2023/06/14 10:51:20;;;;;;;;;;;23.20;64.70;;;;;;5072723;28;19915;-87
2023/06/14 10:53:47;;;;;;;;;;;23.40;65.40;;;;;;5056581;28;19923;-87
2023/06/14 10:56:28;;;;;;;;;;;24.80;64.40;;;;;;5074680;28;19933;-87
2023/06/14 10:58:58;;;;;;;;;;;25.20;62.20;;;;;;5088809;28;19908;-85
2023/06/14 11:01:37;;;;;;;;;;;25.10;59.50;;;;;;5073281;28;19909;-87
2023/06/14 11:04:10;;;;;;;;;;;24.70;60.00;;;;;;5077894;28;19909;-87
2023/06/14 11:06:46;;;;;;;;;;;24.10;61.20;;;;;;5078874;28;20271;-87
2023/06/14 11:09:32;;;;;;;;;;;23.80;63.00;;;;;;5096406;28;19914;-87
2023/06/14 11:11:59;;;;;;;;;;;23.90;65.00;;;;;;5078665;28;19912;-88
2023/06/14 11:14:24;;;;;;;;;;;24.50;60.20;;;;;;5077140;28;19912;-87
2023/06/14 11:17:00;;;;;;;;;;;25.50;59.00;;;;;;5077367;28;20306;-87
2023/06/14 11:19:28;;;;;;;;;;;26.20;58.90;;;;;;5061101;28;19908;-88
2023/06/14 11:21:54;;;;;;;;;;;25.80;59.30;;;;;;5077641;28;19905;-86
2023/06/14 11:24:19;;;;;;;;;;;24.40;61.40;;;;;;5078572;28;19916;-87
2023/06/14 11:26:46;;;;;;;;;;;23.80;64.90;;;;;;5059989;28;19912;-87
2023/06/14 11:29:12;;;;;;;;;;;23.50;65.70;;;;;;5060419;28;19916;-87
2023/06/14 11:31:37;;;;;;;;;;;23.40;65.90;;;;;;5076639;28;19908;-87
2023/06/14 11:34:31;;;;;;;;;;;24.40;65.50;;;;;;5060745;28;20382;-87
2023/06/14 11:36:57;;;;;;;;;;;24.50;64.60;;;;;;5077386;28;19908;-87
2023/06/14 11:39:27;;;;;;;;;;;24.90;64.70;;;;;;5077323;28;19911;-87
2023/06/14 11:41:52;;;;;;;;;;;24.40;64.10;;;;;;5085597;28;19912;-87
2023/06/14 11:44:18;;;;;;;;;;;24.20;64.90;;;;;;5064719;28;19909;-85
2023/06/14 11:46:44;;;;;;;;;;;24.30;65.10;;;;;;5076764;28;19908;-86
2023/06/14 11:49:10;;;;;;;;;;;24.40;66.20;;;;;;5077020;28;19904;-86
2023/06/14 11:52:09;;;;;;;;;;;24.40;65.80;;;;;;5059571;28;20360;-86
2023/06/14 11:54:35;;;;;;;;;;;23.90;66.10;;;;;;5070528;28;19912;-87
2023/06/14 11:57:00;;;;;;;;;;;23.90;67.70;;;;;;5075971;28;19935;-87
2023/06/14 11:59:27;;;;;;;;;;;24.00;67.50;;;;;;5075926;28;19909;-85
2023/06/14 12:02:25;;;;;;;;;;;23.80;66.60;;;;;;5076396;28;20373;-86
2023/06/14 12:04:50;;;;;;;;;;;24.00;66.30;;;;;;5057195;28;19964;-85
2023/06/14 12:07:19;;;;;;;;;;;24.10;64.10;;;;;;5059964;28;19908;-87
2023/06/14 12:09:54;;;;;;;;;;;24.40;65.20;;;;;;5076282;28;19947;-85
2023/06/14 12:12:39;;;;;;;;;;;25.60;63.10;;;;;;5079499;28;19908;-87
2023/06/14 12:15:06;;;;;;;;;;;26.10;62.40;;;;;;5074143;28;20326;-87
2023/06/14 12:17:32;;;;;;;;;;;25.40;63.20;;;;;;5060222;28;19950;-87
2023/06/14 12:19:57;;;;;;;;;;;24.70;65.40;;;;;;5076874;28;19915;-87
2023/06/14 12:22:27;;;;;;;;;;;24.50;66.20;;;;;;5075237;28;20003;-88
2023/06/14 12:24:53;;;;;;;;;;;24.30;66.00;;;;;;5075774;28;20313;-87
2023/06/14 12:27:23;;;;;;;;;;;24.00;66.60;;;;;;5058878;28;20003;-87
2023/06/14 12:29:58;;;;;;;;;;;24.00;65.40;;;;;;5076032;28;19908;-87
2023/06/14 12:32:23;;;;;;;;;;;24.20;65.70;;;;;;5075447;28;19908;-87
2023/06/14 12:34:58;;;;;;;;;;;24.30;65.30;;;;;;5075776;28;19912;-87
2023/06/14 12:37:24;;;;;;;;;;;24.40;65.80;;;;;;5079120;28;19908;-87
2023/06/14 12:39:50;;;;;;;;;;;24.50;67.00;;;;;;5080410;28;20344;-87
2023/06/14 12:42:16;;;;;;;;;;;24.70;65.60;;;;;;5074147;28;19947;-88
2023/06/14 12:45:00;;;;;;;;;;;24.30;64.20;;;;;;5093209;28;19951;-86
2023/06/14 12:47:26;;;;;;;;;;;24.10;64.00;;;;;;5068640;28;20352;-86
2023/06/14 12:49:52;;;;;;;;;;;24.70;63.80;;;;;;5075562;28;19938;-87
2023/06/14 12:52:18;;;;;;;;;;;26.40;61.20;;;;;;5059057;28;19908;-87
2023/06/14 12:54:43;;;;;;;;;;;27.40;60.10;;;;;;5059130;28;19919;-88
2023/06/14 12:57:09;;;;;;;;;;;28.00;58.90;;;;;;5093077;28;19908;-90
2023/06/14 12:59:35;;;;;;;;;;;27.10;58.30;;;;;;5060064;28;19936;-89
2023/06/14 13:02:11;;;;;;;;;;;26.60;58.30;;;;;;5075853;28;20245;-86
2023/06/14 13:04:37;;;;;;;;;;;26.80;58.50;;;;;;5076108;28;20264;-86
2023/06/14 13:07:02;;;;;;;;;;;26.50;59.70;;;;;;5085739;28;19908;-87
2023/06/14 13:09:28;;;;;;;;;;;26.50;59.90;;;;;;5063864;28;19915;-87
2023/06/14 13:11:53;;;;;;;;;;;26.30;61.40;;;;;;5075663;28;20379;-87
2023/06/14 13:14:19;;;;;;;;;;;26.00;61.30;;;;;;5063139;28;19912;-86
2023/06/14 13:16:45;;;;;;;;;;;25.50;61.30;;;;;;5080274;28;19908;-87
2023/06/14 13:19:11;;;;;;;9.10;4.43;;;25.10;60.80;;;;;;5074915;28;19905;-87
2023/06/14 13:21:37;;;;;;;5.95;4.53;;;25.60;59.90;;;;;;5080045;28;20032;-87
2023/06/14 13:24:02;;;;;;;9.73;4.70;;;26.30;58.50;;;;;;5077410;28;20116;-87
2023/06/14 13:26:28;;;;;;;6.45;4.90;;;26.10;58.70;;;;;;5058974;28;20529;-87
2023/06/14 13:28:54;;;;;;;7.30;4.13;;;26.80;58.90;;;;;;5058339;28;20033;-88
2023/06/14 13:31:21;;;;;;;9.15;4.18;;;27.90;57.30;;;;;;5078983;28;20731;-88
2023/06/14 13:33:47;;;;;;;4.88;4.40;;;28.40;57.20;;;;;;5074546;28;20544;-87
2023/06/14 13:36:13;;;;;;;12.93;4.72;;;28.60;56.50;;;;;;5074728;28;20063;-88
2023/06/14 13:38:39;;;;;;;7.05;4.55;;;28.20;56.70;;;;;;5071663;28;20052;-88
2023/06/14 13:41:05;;;;;;;5.32;4.25;;;27.50;58.00;;;;;;5075245;28;20045;-87
2023/06/14 13:43:31;;;;;;;6.00;4.63;;;26.60;58.40;;;;;;5058508;28;20070;-87
2023/06/14 13:45:56;;;;;;;;;;;25.60;58.60;;;;;;5076271;28;20031;-88
2023/06/14 13:48:22;;;;;;;;;;;25.30;60.50;;;;;;5059143;28;19911;-87
2023/06/14 13:50:48;;;;;;;;;;;24.90;62.70;;;;;;5075558;28;19915;-87
2023/06/14 13:53:14;;;;;;;;;;;24.80;61.00;;;;;;5059198;28;19909;-88
2023/06/14 13:59:09;;;;;;;;;;;27.10;58.20;;;;;;5072625;28;19915;-88
2023/06/14 14:01:34;;;;;;;;;;;29.20;57.00;;;;;;5057673;28;19954;-88
2023/06/14 14:04:00;;;;;;;;;;;29.90;55.40;;;;;;5074732;28;19916;-87
2023/06/14 14:06:26;;;;;;;;;;;29.90;54.60;;;;;;5058418;28;19955;-86
2023/06/14 14:08:52;;;;;;;;;;;29.20;54.80;;;;;;5074634;28;19909;-86
2023/06/14 14:11:18;;;;;;;;;;;28.70;56.10;;;;;;5057558;28;19908;-87
2023/06/14 14:13:44;;;;;;;;;;;28.40;55.70;;;;;;5057309;28;19912;-86
2023/06/14 14:16:10;;;;;;;;;;;28.20;56.20;;;;;;5083608;28;19908;-86
2023/06/14 14:18:36;;;;;;;;;;;28.60;56.30;;;;;;5060906;28;19935;-87
2023/06/14 14:21:03;;;;;;;;;;;28.40;55.40;;;;;;5058292;28;20391;-87
2023/06/14 14:23:28;;;;;;;;;;;28.20;56.00;;;;;;5050814;28;19928;-87
2023/06/14 14:25:54;;;;;;;;;;;28.80;56.00;;;;;;5062903;28;20345;-88
2023/06/14 14:28:20;;;;;;;;;;;29.20;55.60;;;;;;5066067;28;20334;-88
2023/06/14 14:30:47;;;;;;;;;;;29.10;54.00;;;;;;5048408;28;19916;-88
2023/06/14 14:33:16;;;;;;;;;;;29.10;54.80;;;;;;5070593;28;19912;-88
2023/06/14 14:36:16;;;;;;;;;;;30.00;53.70;;;;;;5057093;28;19908;-88